Time,TemperatureF,DewpointF,PressureIn,WindDirection,WindDirectionDegrees,WindSpeedMPH,WindSpeedGustMPH,Humidity,HourlyPrecipIn,Conditions,Clouds,dailyrainin,SoftwareType,DateUTC
2013-03-04 00:01:00,53.0,36.0,29.89,NW,306,29.0,42.0,53,0.00,,,0.00,,2013-03-04 08:01:00,
2013-03-04 00:11:00,53.0,37.0,29.92,NW,316,18.0,36.0,55,0.00,,,0.00,,2013-03-04 08:11:00,
2013-03-04 00:21:00,53.0,37.0,29.92,NW,316,18.0,36.0,55,0.00,,,0.00,,2013-03-04 08:21:00,
2013-03-04 00:31:00,53.0,38.0,29.93,NW,315,19.0,38.0,56,0.00,,,0.00,,2013-03-04 08:31:00,
2013-03-04 00:41:00,53.0,38.0,29.93,NW,315,19.0,38.0,56,0.00,,,0.00,,2013-03-04 08:41:00,
2013-03-04 00:52:00,53.0,37.0,29.93,WNW,299,26.0,39.0,55,0.00,,,0.00,,2013-03-04 08:52:00,
2013-03-04 01:01:00,53.0,37.0,29.95,NW,304,20.0,32.0,55,0.00,,,0.00,,2013-03-04 09:01:00,
2013-03-04 01:11:00,53.0,37.0,29.95,NW,304,20.0,32.0,55,0.00,,,0.00,,2013-03-04 09:11:00,
2013-03-04 01:21:00,53.0,38.0,29.96,WNW,297,22.0,36.0,57,0.00,,,0.00,,2013-03-04 09:21:00,
2013-03-04 01:31:00,53.0,38.0,29.97,WNW,302,16.0,36.0,57,0.00,,,0.00,,2013-03-04 09:31:00,
2013-03-04 01:41:00,53.0,38.0,29.97,WNW,302,16.0,36.0,57,0.00,,,0.00,,2013-03-04 09:41:00,
2013-03-04 01:52:00,52.0,38.0,29.98,NW,308,16.0,32.0,58,0.00,,,0.00,,2013-03-04 09:52:00,
2013-03-04 02:01:00,52.0,38.0,29.97,WNW,301,23.0,34.0,58,0.00,,,0.00,,2013-03-04 10:01:00,
2013-03-04 02:11:00,52.0,38.0,29.97,WNW,301,23.0,34.0,58,0.00,,,0.00,,2013-03-04 10:11:00,
2013-03-04 02:21:00,52.0,38.0,29.98,NW,310,11.0,28.0,58,0.00,,,0.00,,2013-03-04 10:21:00,
2013-03-04 02:31:00,52.0,37.0,29.99,NW,309,12.0,27.0,57,0.00,,,0.00,,2013-03-04 10:31:00,
2013-03-04 02:41:00,52.0,37.0,29.99,WNW,301,11.0,22.0,57,0.00,,,0.00,,2013-03-04 10:41:00,
2013-03-04 02:52:00,52.0,37.0,29.99,WNW,301,11.0,22.0,57,0.00,,,0.00,,2013-03-04 10:52:00,
2013-03-04 03:01:00,52.0,37.0,30.00,WNW,299,16.0,25.0,57,0.00,,,0.00,,2013-03-04 11:01:00,
2013-03-04 03:11:00,52.0,37.0,30.00,WNW,299,16.0,25.0,57,0.00,,,0.00,,2013-03-04 11:11:00,
2013-03-04 03:21:00,52.0,37.0,30.01,West,270,9.0,17.0,57,0.00,,,0.00,,2013-03-04 11:21:00,
2013-03-04 03:31:00,51.0,37.0,30.00,West,273,5.0,16.0,58,0.00,,,0.00,,2013-03-04 11:31:00,
2013-03-04 03:41:00,51.0,37.0,30.00,West,273,5.0,16.0,58,0.00,,,0.00,,2013-03-04 11:41:00,
2013-03-04 03:52:00,52.0,37.0,30.00,WNW,298,7.0,18.0,56,0.00,,,0.00,,2013-03-04 11:52:00,
2013-03-04 04:01:00,52.0,37.0,30.00,WNW,300,10.0,19.0,56,0.00,,,0.00,,2013-03-04 12:01:00,
2013-03-04 04:11:00,52.0,36.0,30.01,WNW,299,8.0,20.0,55,0.00,,,0.00,,2013-03-04 12:11:00,
2013-03-04 04:21:00,52.0,36.0,30.01,WNW,299,8.0,20.0,55,0.00,,,0.00,,2013-03-04 12:21:00,
2013-03-04 04:32:00,52.0,37.0,30.01,WNW,282,4.0,17.0,56,0.00,,,0.00,,2013-03-04 12:32:00,
2013-03-04 04:42:00,52.0,37.0,30.01,WNW,282,4.0,17.0,56,0.00,,,0.00,,2013-03-04 12:42:00,
2013-03-04 04:52:00,52.0,37.0,30.02,SSW,202,7.0,15.0,56,0.00,,,0.00,,2013-03-04 12:52:00,
2013-03-04 05:01:00,52.0,37.0,30.03,West,266,9.0,17.0,57,0.00,,,0.00,,2013-03-04 13:01:00,
2013-03-04 05:11:00,52.0,37.0,30.03,West,266,9.0,17.0,57,0.00,,,0.00,,2013-03-04 13:11:00,
2013-03-04 05:21:00,52.0,36.0,30.02,WNW,298,17.0,26.0,55,0.00,,,0.00,,2013-03-04 13:21:00,
2013-03-04 05:31:00,53.0,36.0,30.03,NNW,333,11.0,20.0,52,0.00,,,0.00,,2013-03-04 13:31:00,
2013-03-04 05:41:00,53.0,36.0,30.03,NNW,333,11.0,20.0,52,0.00,,,0.00,,2013-03-04 13:41:00,
2013-03-04 05:52:00,54.0,35.0,30.03,WNW,303,6.0,17.0,49,0.00,,,0.00,,2013-03-04 13:52:00,
2013-03-04 06:01:00,53.0,35.0,30.03,NW,308,9.0,23.0,50,0.00,,,0.00,,2013-03-04 14:01:00,
2013-03-04 06:11:00,53.0,35.0,30.03,NW,308,9.0,23.0,50,0.00,,,0.00,,2013-03-04 14:11:00,
2013-03-04 06:21:00,52.0,35.0,30.03,WNW,299,10.0,19.0,52,0.00,,,0.00,,2013-03-04 14:21:00,
2013-03-04 06:31:00,51.0,35.0,30.03,WNW,303,12.0,21.0,55,0.00,,,0.00,,2013-03-04 14:31:00,
2013-03-04 06:41:00,51.0,35.0,30.03,WNW,303,12.0,21.0,55,0.00,,,0.00,,2013-03-04 14:41:00,
2013-03-04 06:52:00,52.0,34.0,30.03,NW,304,11.0,17.0,51,0.00,,,0.00,,2013-03-04 14:52:00,
2013-03-04 07:01:00,52.0,34.0,30.03,NW,304,8.0,17.0,50,0.00,,,0.00,,2013-03-04 15:01:00,
2013-03-04 07:11:00,52.0,34.0,30.03,NW,304,8.0,17.0,50,0.00,,,0.00,,2013-03-04 15:11:00,
2013-03-04 07:21:00,53.0,34.0,30.04,WNW,301,9.0,16.0,49,0.00,,,0.00,,2013-03-04 15:21:00,
2013-03-04 07:31:00,53.0,34.0,30.04,WNW,301,9.0,16.0,49,0.00,,,0.00,,2013-03-04 15:31:00,
2013-03-04 07:41:00,53.0,34.0,30.04,WNW,301,9.0,16.0,49,0.00,,,0.00,,2013-03-04 15:41:00,
2013-03-04 07:52:00,54.0,35.0,30.06,WNW,296,10.0,19.0,49,0.00,,,0.00,,2013-03-04 15:52:00,
2013-03-04 08:02:00,54.0,36.0,30.07,WNW,297,13.0,20.0,50,0.00,,,0.00,,2013-03-04 16:02:00,
2013-03-04 08:11:00,54.0,36.0,30.07,WNW,297,13.0,20.0,50,0.00,,,0.00,,2013-03-04 16:11:00,
2013-03-04 08:21:00,54.0,36.0,30.08,WNW,298,15.0,24.0,51,0.00,,,0.00,,2013-03-04 16:21:00,
2013-03-04 08:31:00,55.0,37.0,30.08,WNW,296,11.0,22.0,50,0.00,,,0.00,,2013-03-04 16:31:00,
2013-03-04 08:41:00,55.0,37.0,30.08,WNW,296,11.0,22.0,50,0.00,,,0.00,,2013-03-04 16:41:00,
2013-03-04 08:52:00,56.0,36.0,30.09,WNW,297,8.0,17.0,47,0.00,,,0.00,,2013-03-04 16:52:00,
2013-03-04 09:01:00,58.0,36.0,30.09,WNW,295,7.0,11.0,43,0.00,,,0.00,,2013-03-04 17:01:00,
2013-03-04 09:11:00,58.0,36.0,30.09,WNW,295,7.0,11.0,43,0.00,,,0.00,,2013-03-04 17:11:00,
2013-03-04 09:21:00,58.0,36.0,30.09,WNW,290,7.0,14.0,43,0.00,,,0.00,,2013-03-04 17:21:00,
2013-03-04 09:31:00,59.0,36.0,30.09,NNW,336,1.0,11.0,42,0.00,,,0.00,,2013-03-04 17:31:00,
2013-03-04 09:42:00,59.0,36.0,30.09,NNW,336,1.0,11.0,42,0.00,,,0.00,,2013-03-04 17:42:00,
2013-03-04 09:52:00,60.0,34.0,30.09,East,99,3.0,10.0,37,0.00,,,0.00,,2013-03-04 17:52:00,
2013-03-04 10:01:00,61.0,34.0,30.09,ESE,108,3.0,7.0,36,0.00,,,0.00,,2013-03-04 18:01:00,
2013-03-04 10:11:00,61.0,34.0,30.09,ESE,108,3.0,7.0,36,0.00,,,0.00,,2013-03-04 18:11:00,
2013-03-04 10:21:00,61.0,34.0,30.10,North,0,0.0,6.0,36,0.00,,,0.00,,2013-03-04 18:21:00,
2013-03-04 10:31:00,61.0,33.0,30.09,East,95,4.0,7.0,35,0.00,,,0.00,,2013-03-04 18:31:00,
2013-03-04 10:41:00,61.0,33.0,30.09,East,95,4.0,7.0,35,0.00,,,0.00,,2013-03-04 18:41:00,
2013-03-04 10:52:00,62.0,33.0,30.10,ESE,114,2.0,7.0,34,0.00,,,0.00,,2013-03-04 18:52:00,
2013-03-04 11:01:00,62.0,33.0,30.09,North,0,0.0,6.0,34,0.00,,,0.00,,2013-03-04 19:01:00,
2013-03-04 11:11:00,62.0,33.0,30.09,North,0,0.0,6.0,34,0.00,,,0.00,,2013-03-04 19:11:00,
2013-03-04 11:21:00,63.0,33.0,30.09,East,99,3.0,10.0,33,0.00,,,0.00,,2013-03-04 19:21:00,
2013-03-04 11:31:00,62.0,33.0,30.09,North,0,0.0,8.0,33,0.00,,,0.00,,2013-03-04 19:31:00,
2013-03-04 11:41:00,62.0,33.0,30.09,North,0,0.0,8.0,33,0.00,,,0.00,,2013-03-04 19:41:00,
2013-03-04 11:52:00,63.0,33.0,30.08,WSW,250,3.0,8.0,32,0.00,,,0.00,,2013-03-04 19:52:00,
2013-03-04 12:01:00,63.0,33.0,30.08,SSE,159,2.0,7.0,32,0.00,,,0.00,,2013-03-04 20:01:00,
2013-03-04 12:11:00,64.0,32.0,30.07,WNW,290,3.0,7.0,30,0.00,,,0.00,,2013-03-04 20:11:00,
2013-03-04 12:21:00,64.0,32.0,30.07,WNW,290,3.0,7.0,30,0.00,,,0.00,,2013-03-04 20:21:00,
2013-03-04 12:31:00,64.0,32.0,30.07,ESE,115,2.0,9.0,30,0.00,,,0.00,,2013-03-04 20:31:00,
2013-03-04 12:41:00,64.0,32.0,30.07,ESE,115,2.0,9.0,30,0.00,,,0.00,,2013-03-04 20:41:00,
2013-03-04 12:52:00,65.0,32.0,30.06,South,188,3.0,9.0,29,0.00,,,0.00,,2013-03-04 20:52:00,
2013-03-04 13:01:00,66.0,33.0,30.06,North,0,0.0,7.0,29,0.00,,,0.00,,2013-03-04 21:01:00,
2013-03-04 13:11:00,66.0,33.0,30.06,North,0,0.0,7.0,29,0.00,,,0.00,,2013-03-04 21:11:00,
2013-03-04 13:21:00,66.0,32.0,30.06,SSW,207,3.0,10.0,28,0.00,,,0.00,,2013-03-04 21:21:00,
2013-03-04 13:31:00,66.0,32.0,30.06,South,175,1.0,7.0,28,0.00,,,0.00,,2013-03-04 21:31:00,
2013-03-04 13:41:00,66.0,32.0,30.06,South,175,1.0,7.0,28,0.00,,,0.00,,2013-03-04 21:41:00,
2013-03-04 13:52:00,68.0,32.0,30.04,ESE,108,2.0,6.0,26,0.00,,,0.00,,2013-03-04 21:52:00,
2013-03-04 14:01:00,67.0,32.0,30.04,South,179,1.0,9.0,27,0.00,,,0.00,,2013-03-04 22:01:00,
2013-03-04 14:11:00,67.0,32.0,30.04,South,179,1.0,9.0,27,0.00,,,0.00,,2013-03-04 22:11:00,
2013-03-04 14:21:00,67.0,31.0,30.04,ESE,118,3.0,10.0,26,0.00,,,0.00,,2013-03-04 22:21:00,
2013-03-04 14:31:00,68.0,32.0,30.04,SSE,148,4.0,17.0,26,0.00,,,0.00,,2013-03-04 22:31:00,
2013-03-04 14:42:00,68.0,32.0,30.04,SSE,148,4.0,17.0,26,0.00,,,0.00,,2013-03-04 22:42:00,
2013-03-04 14:52:00,69.0,32.0,30.03,SSW,213,4.0,11.0,25,0.00,,,0.00,,2013-03-04 22:52:00,
2013-03-04 15:01:00,69.0,31.0,30.03,South,184,1.0,6.0,24,0.00,,,0.00,,2013-03-04 23:01:00,
2013-03-04 15:11:00,69.0,31.0,30.03,South,184,1.0,6.0,24,0.00,,,0.00,,2013-03-04 23:11:00,
2013-03-04 15:21:00,69.0,31.0,30.04,SSW,202,2.0,11.0,24,0.00,,,0.00,,2013-03-04 23:21:00,
2013-03-04 15:31:00,69.0,31.0,30.04,WSW,252,2.0,10.0,24,0.00,,,0.00,,2013-03-04 23:31:00,
2013-03-04 15:41:00,69.0,31.0,30.04,WSW,252,2.0,10.0,24,0.00,,,0.00,,2013-03-04 23:41:00,
2013-03-04 15:52:00,69.0,31.0,30.04,SE,138,2.0,7.0,24,0.00,,,0.00,,2013-03-04 23:52:00,
2013-03-04 16:01:00,69.0,31.0,30.04,North,0,0.0,6.0,24,0.00,,,0.00,,2013-03-05 00:01:00,
2013-03-04 16:11:00,69.0,31.0,30.04,North,0,0.0,6.0,24,0.00,,,0.00,,2013-03-05 00:11:00,
2013-03-04 16:21:00,69.0,34.0,30.03,WSW,244,5.0,11.0,27,0.00,,,0.00,,2013-03-05 00:21:00,
2013-03-04 16:32:00,69.0,37.0,30.03,West,274,4.0,10.0,31,0.00,,,0.00,,2013-03-05 00:32:00,
2013-03-04 16:41:00,69.0,37.0,30.03,West,274,4.0,10.0,31,0.00,,,0.00,,2013-03-05 00:41:00,
2013-03-04 16:52:00,68.0,37.0,30.03,West,259,5.0,11.0,32,0.00,,,0.00,,2013-03-05 00:52:00,
2013-03-04 17:01:00,68.0,37.0,30.03,WNW,287,6.0,10.0,32,0.00,,,0.00,,2013-03-05 01:01:00,
2013-03-04 17:11:00,68.0,37.0,30.03,WNW,287,6.0,10.0,32,0.00,,,0.00,,2013-03-05 01:11:00,
2013-03-04 17:21:00,67.0,38.0,30.04,WNW,292,5.0,10.0,34,0.00,,,0.00,,2013-03-05 01:21:00,
2013-03-04 17:32:00,66.0,38.0,30.04,WNW,291,5.0,10.0,35,0.00,,,0.00,,2013-03-05 01:32:00,
2013-03-04 17:41:00,66.0,38.0,30.04,WNW,291,5.0,10.0,35,0.00,,,0.00,,2013-03-05 01:41:00,
2013-03-04 17:52:00,65.0,39.0,30.04,WNW,296,3.0,8.0,38,0.00,,,0.00,,2013-03-05 01:52:00,
2013-03-04 18:01:00,64.0,39.0,30.04,WNW,293,2.0,10.0,40,0.00,,,0.00,,2013-03-05 02:01:00,
2013-03-04 18:11:00,64.0,39.0,30.04,WNW,293,2.0,10.0,40,0.00,,,0.00,,2013-03-05 02:11:00,
2013-03-04 18:21:00,61.0,38.0,30.04,WNW,296,5.0,12.0,42,0.00,,,0.00,,2013-03-05 02:21:00,
2013-03-04 18:31:00,60.0,38.0,30.05,WNW,296,6.0,12.0,44,0.00,,,0.00,,2013-03-05 02:31:00,
2013-03-04 18:41:00,60.0,38.0,30.05,WNW,296,6.0,12.0,44,0.00,,,0.00,,2013-03-05 02:41:00,
2013-03-04 18:52:00,60.0,39.0,30.06,WNW,297,4.0,11.0,45,0.00,,,0.00,,2013-03-05 02:52:00,
2013-03-04 19:01:00,59.0,38.0,30.06,WNW,294,2.0,9.0,46,0.00,,,0.00,,2013-03-05 03:01:00,
2013-03-04 19:11:00,58.0,38.0,30.06,WNW,298,1.0,5.0,48,0.00,,,0.00,,2013-03-05 03:11:00,
2013-03-04 19:21:00,58.0,38.0,30.06,WNW,298,1.0,5.0,48,0.00,,,0.00,,2013-03-05 03:21:00,
2013-03-04 19:31:00,57.0,38.0,30.06,North,0,0.0,5.0,49,0.00,,,0.00,,2013-03-05 03:31:00,
2013-03-04 19:41:00,57.0,38.0,30.06,North,0,0.0,5.0,49,0.00,,,0.00,,2013-03-05 03:41:00,
2013-03-04 19:52:00,56.0,38.0,30.06,North,0,0.0,0.0,50,0.00,,,0.00,,2013-03-05 03:52:00,
2013-03-04 20:01:00,55.0,37.0,30.06,North,0,0.0,2.0,50,0.00,,,0.00,,2013-03-05 04:01:00,
2013-03-04 20:11:00,55.0,37.0,30.06,North,0,0.0,2.0,50,0.00,,,0.00,,2013-03-05 04:11:00,
2013-03-04 20:21:00,53.0,35.0,30.07,WSW,248,1.0,4.0,50,0.00,,,0.00,,2013-03-05 04:21:00,
2013-03-04 20:31:00,52.0,34.0,30.07,North,0,0.0,2.0,51,0.00,,,0.00,,2013-03-05 04:31:00,
2013-03-04 20:41:00,52.0,34.0,30.07,North,0,0.0,2.0,51,0.00,,,0.00,,2013-03-05 04:41:00,
2013-03-04 20:52:00,52.0,34.0,30.07,West,273,3.0,5.0,51,0.00,,,0.00,,2013-03-05 04:52:00,
2013-03-04 21:01:00,51.0,33.0,30.07,WNW,302,2.0,5.0,50,0.00,,,0.00,,2013-03-05 05:01:00,
2013-03-04 21:11:00,51.0,33.0,30.07,WNW,302,2.0,5.0,50,0.00,,,0.00,,2013-03-05 05:11:00,
2013-03-04 21:22:00,51.0,33.0,30.08,WNW,302,1.0,3.0,50,0.00,,,0.00,,2013-03-05 05:22:00,
2013-03-04 21:31:00,50.0,32.0,30.09,North,0,0.0,2.0,50,0.00,,,0.00,,2013-03-05 05:31:00,
2013-03-04 21:41:00,50.0,32.0,30.09,North,0,0.0,2.0,50,0.00,,,0.00,,2013-03-05 05:41:00,
2013-03-04 21:52:00,50.0,32.0,30.09,North,0,0.0,2.0,50,0.00,,,0.00,,2013-03-05 05:52:00,
2013-03-04 22:01:00,50.0,32.0,30.09,North,0,0.0,1.0,50,0.00,,,0.00,,2013-03-05 06:01:00,
2013-03-04 22:11:00,50.0,32.0,30.09,North,0,0.0,1.0,50,0.00,,,0.00,,2013-03-05 06:11:00,
2013-03-04 22:21:00,51.0,33.0,30.09,North,0,0.0,1.0,50,0.00,,,0.00,,2013-03-05 06:21:00,
2013-03-04 22:31:00,51.0,33.0,30.09,North,0,0.0,1.0,50,0.00,,,0.00,,2013-03-05 06:31:00,
2013-03-04 22:41:00,51.0,33.0,30.09,North,0,0.0,1.0,50,0.00,,,0.00,,2013-03-05 06:41:00,
2013-03-04 22:52:00,52.0,35.0,30.09,NW,305,1.0,3.0,52,0.00,,,0.00,,2013-03-05 06:52:00,
2013-03-04 23:01:00,52.0,34.0,30.09,WNW,299,2.0,4.0,51,0.00,,,0.00,,2013-03-05 07:01:00,
2013-03-04 23:11:00,52.0,34.0,30.09,WNW,299,2.0,4.0,51,0.00,,,0.00,,2013-03-05 07:11:00,
2013-03-04 23:21:00,52.0,34.0,30.09,WNW,299,2.0,4.0,51,0.00,,,0.00,,2013-03-05 07:21:00,
2013-03-04 23:31:00,51.0,33.0,30.09,North,0,0.0,3.0,50,0.00,,,0.00,,2013-03-05 07:31:00,
2013-03-04 23:41:00,51.0,33.0,30.09,North,0,0.0,3.0,50,0.00,,,0.00,,2013-03-05 07:41:00,
2013-03-04 23:52:00,50.0,33.0,30.09,WNW,298,4.0,6.0,51,0.00,,,0.00,,2013-03-05 07:52:00,